Time;durP1;ratioP1;P1;durP2;ratioP2;P2;SDS_P1;SDS_P2;PMS_P1;PMS_P2;Temp;Humidity;BMP_temperature;BMP_pressure;BME280_temperature;BME280_humidity;BME280_pressure;Samples;Min_cycle;Max_cycle;Signal;HPM_P1;HPM_P2
2023/02/23 00:01:25;;;;;;;71.80;36.83;;;;;;;;;;4965481;28;20274;-72
2023/02/23 00:03:53;;;;;;;66.20;35.90;;;;;;;;;;4956249;28;20646;-72
2023/02/23 00:06:19;;;;;;;74.70;37.73;;;;;;;;;;4968306;28;20279;-72
2023/02/23 00:08:46;;;;;;;70.10;36.50;;;;;;;;;;4970471;28;20252;-72
2023/02/23 00:11:12;;;;;;;67.93;35.13;;;;;;;;;;4970044;28;20208;-72
2023/02/23 00:13:38;;;;;;;75.90;36.97;;;;;;;;;;4971379;28;20172;-69
2023/02/23 00:16:04;;;;;;;74.70;38.07;;;;;;;;;;4959237;28;20229;-71
2023/02/23 00:18:29;;;;;;;69.90;35.00;;;;;;;;;;4971299;28;20599;-71
2023/02/23 00:20:56;;;;;;;69.00;34.37;;;;;;;;;;4966708;28;20269;-70
2023/02/23 00:23:21;;;;;;;75.80;37.23;;;;;;;;;;4977294;28;20176;-71
2023/02/23 00:25:47;;;;;;;72.03;35.40;;;;;;;;;;4969593;28;20214;-70
2023/02/23 00:28:12;;;;;;;69.03;33.90;;;;;;;;;;4971087;28;20736;-71
2023/02/23 00:30:38;;;;;;;70.97;35.17;;;;;;;;;;4972611;28;20192;-70
2023/02/23 00:33:03;;;;;;;74.50;37.43;;;;;;;;;;4973403;28;20199;-71
2023/02/23 00:35:28;;;;;;;76.03;37.10;;;;;;;;;;4972556;28;20190;-71
2023/02/23 00:37:53;;;;;;;68.50;34.53;;;;;;;;;;4974487;28;20196;-70
2023/02/23 00:40:23;;;;;;;71.93;36.77;;;;;;;;;;4966919;28;20283;-72
2023/02/23 00:42:50;;;;;;;71.87;36.23;;;;;;;;;;4972447;28;20576;-72
2023/02/23 00:45:15;;;;;;;70.10;36.97;;;;;;;;;;4969315;28;20173;-72
2023/02/23 00:47:42;;;;;;;76.27;37.47;;;;;;;;;;4975121;28;20208;-71
2023/02/23 00:50:13;;;;;;;71.53;36.90;;;;;;;;;;4976316;28;20212;-71
2023/02/23 00:52:39;;;;;;;69.87;34.97;;;;;;;;;;4975942;28;20224;-72
2023/02/23 00:55:06;;;;;;;66.17;33.87;;;;;;;;;;4970586;28;20678;-71
2023/02/23 00:57:32;;;;;;;71.37;36.73;;;;;;;;;;4966799;28;20593;-72
2023/02/23 00:59:57;;;;;;;73.57;35.17;;;;;;;;;;4970908;28;20204;-71
2023/02/23 01:02:22;;;;;;;74.27;38.13;;;;;;;;;;4975707;28;20184;-71
2023/02/23 01:04:47;;;;;;;69.37;36.13;;;;;;;;;;4975610;28;20227;-71
2023/02/23 01:07:12;;;;;;;69.43;35.53;;;;;;;;;;4972343;28;20195;-71
2023/02/23 01:09:38;;;;;;;64.60;34.60;;;;;;;;;;4974401;28;20181;-71
2023/02/23 01:12:06;;;;;;;72.20;36.40;;;;;;;;;;4973489;28;20238;-71
2023/02/23 01:14:31;;;;;;;74.87;36.33;;;;;;;;;;4972223;28;20181;-71
2023/02/23 01:16:56;;;;;;;74.47;37.07;;;;;;;;;;4972125;28;20274;-72
2023/02/23 01:19:22;;;;;;;71.87;36.30;;;;;;;;;;4973053;28;20180;-72
2023/02/23 01:21:47;;;;;;;69.97;36.13;;;;;;;;;;4975093;28;20223;-72
2023/02/23 01:24:12;;;;;;;69.33;35.10;;;;;;;;;;4963379;28;20279;-71
2023/02/23 01:26:42;;;;;;;69.93;35.80;;;;;;;;;;4968950;28;20183;-70
2023/02/23 01:29:08;;;;;;;68.40;33.23;;;;;;;;;;4974021;28;20316;-71
2023/02/23 01:31:34;;;;;;;74.03;36.13;;;;;;;;;;4973393;28;20713;-72
2023/02/23 01:34:00;;;;;;;68.20;35.77;;;;;;;;;;4974418;28;20270;-72
2023/02/23 01:36:27;;;;;;;73.90;36.80;;;;;;;;;;4973904;28;20190;-72
2023/02/23 01:38:55;;;;;;;68.93;34.37;;;;;;;;;;4972918;28;20675;-71
2023/02/23 01:41:20;;;;;;;65.07;35.00;;;;;;;;;;4964113;28;20578;-72
2023/02/23 01:44:04;;;;;;;66.87;34.60;;;;;;;;;;4971744;28;20187;-71
2023/02/23 01:46:31;;;;;;;64.37;32.77;;;;;;;;;;4975131;28;20183;-71
2023/02/23 01:48:57;;;;;;;65.57;33.53;;;;;;;;;;4973234;28;20199;-71
2023/02/23 01:51:23;;;;;;;66.83;34.23;;;;;;;;;;4974771;28;20216;-70
2023/02/23 01:54:09;;;;;;;65.13;34.20;;;;;;;;;;4973548;28;20632;-70
2023/02/23 01:56:42;;;;;;;72.53;35.87;;;;;;;;;;4973096;28;20267;-71
2023/02/23 01:59:11;;;;;;;72.07;33.43;;;;;;;;;;4967235;28;20543;-71
2023/02/23 02:01:37;;;;;;;70.40;34.37;;;;;;;;;;4971286;28;20202;-70
2023/02/23 02:04:05;;;;;;;68.17;33.23;;;;;;;;;;4970599;28;20236;-71
2023/02/23 02:06:31;;;;;;;67.57;33.23;;;;;;;;;;4972238;28;20604;-72
2023/02/23 02:09:09;;;;;;;66.17;32.70;;;;;;;;;;4972445;28;20200;-72
2023/02/23 02:11:35;;;;;;;72.33;36.03;;;;;;;;;;4970144;28;20216;-71
2023/02/23 02:14:01;;;;;;;68.70;34.50;;;;;;;;;;4973248;28;20187;-71
2023/02/23 02:16:45;;;;;;;62.93;33.13;;;;;;;;;;4977824;28;20253;-71
2023/02/23 02:19:29;;;;;;;63.83;33.23;;;;;;;;;;4973161;28;20267;-71
2023/02/23 02:21:57;;;;;;;71.30;35.40;;;;;;;;;;4974377;28;20215;-71
2023/02/23 02:24:41;;;;;;;74.73;37.17;;;;;;;;;;4981718;28;20271;-72
2023/02/23 02:27:18;;;;;;;63.50;30.87;;;;;;;;;;4972963;28;20191;-72
2023/02/23 02:29:43;;;;;;;66.47;32.90;;;;;;;;;;4979866;28;20199;-71
2023/02/23 02:32:20;;;;;;;68.17;35.30;;;;;;;;;;4973189;28;20224;-72
2023/02/23 02:35:04;;;;;;;72.27;33.87;;;;;;;;;;4981636;28;20175;-71
2023/02/23 02:37:37;;;;;;;70.03;35.00;;;;;;;;;;4976585;28;20222;-72
2023/02/23 02:40:17;;;;;;;67.77;33.13;;;;;;;;;;4971270;28;20196;-71
2023/02/23 02:42:48;;;;;;;70.80;34.13;;;;;;;;;;4961266;28;20594;-71
2023/02/23 02:45:16;;;;;;;68.90;34.53;;;;;;;;;;4973336;28;20181;-72
2023/02/23 02:47:44;;;;;;;65.33;32.97;;;;;;;;;;4973944;28;20173;-72
2023/02/23 02:50:14;;;;;;;63.20;32.67;;;;;;;;;;4974027;28;20196;-72
2023/02/23 02:52:42;;;;;;;62.60;31.07;;;;;;;;;;4970611;28;20243;-72
2023/02/23 02:55:10;;;;;;;61.93;32.93;;;;;;;;;;4974222;28;20296;-72
2023/02/23 02:57:36;;;;;;;73.97;34.93;;;;;;;;;;4973427;28;20202;-72
2023/02/23 04:18:14;;;;;;;62.90;32.80;;;;;;;;;;4973005;28;20172;-71
2023/02/23 04:20:39;;;;;;;64.37;31.80;;;;;;;;;;4982573;23;20299;-82
2023/02/23 04:23:04;;;;;;;61.97;31.67;;;;;;;;;;4970502;28;20275;-82
2023/02/23 04:25:30;;;;;;;59.87;32.17;;;;;;;;;;4970776;28;20236;-82
2023/02/23 04:27:55;;;;;;;62.90;31.53;;;;;;;;;;4958398;28;20566;-82
2023/02/23 04:30:24;;;;;;;63.97;30.87;;;;;;;;;;4956224;28;20292;-82
2023/02/23 04:32:49;;;;;;;62.87;30.67;;;;;;;;;;4954137;28;20271;-81
2023/02/23 04:35:14;;;;;;;66.17;31.77;;;;;;;;;;4956299;28;20534;-82
2023/02/23 04:37:39;;;;;;;63.50;32.27;;;;;;;;;;4955525;28;20175;-81
2023/02/23 04:40:05;;;;;;;62.43;30.93;;;;;;;;;;4949027;28;20189;-81
2023/02/23 04:42:30;;;;;;;65.50;31.37;;;;;;;;;;4954369;28;20197;-82
2023/02/23 04:44:56;;;;;;;60.83;29.33;;;;;;;;;;4948625;28;20225;-81
2023/02/23 04:47:21;;;;;;;56.03;29.40;;;;;;;;;;4948046;28;20161;-81
2023/02/23 04:49:46;;;;;;;64.67;32.17;;;;;;;;;;4956342;28;20173;-81
2023/02/23 04:52:11;;;;;;;58.57;31.50;;;;;;;;;;4956332;28;20211;-82
2023/02/23 04:54:37;;;;;;;59.40;29.97;;;;;;;;;;4954113;28;20181;-82
2023/02/23 04:57:03;;;;;;;60.60;31.27;;;;;;;;;;4954041;28;20177;-81
2023/02/23 04:59:28;;;;;;;62.90;30.10;;;;;;;;;;4953956;28;20626;-80
2023/02/23 05:01:54;;;;;;;68.30;33.90;;;;;;;;;;4952557;28;20204;-81
2023/02/23 05:04:19;;;;;;;73.37;34.07;;;;;;;;;;4953006;28;20173;-81
2023/02/23 05:06:44;;;;;;;65.97;32.93;;;;;;;;;;4955245;28;20187;-81
2023/02/23 05:09:09;;;;;;;68.37;32.80;;;;;;;;;;4955828;28;20221;-80
2023/02/23 05:11:40;;;;;;;70.50;33.33;;;;;;;;;;4951953;29;20201;-81
2023/02/23 05:14:05;;;;;;;66.83;31.83;;;;;;;;;;4947897;29;20181;-81
2023/02/23 05:16:31;;;;;;;70.97;30.60;;;;;;;;;;4968596;28;20188;-82
2023/02/23 05:18:56;;;;;;;74.40;31.83;;;;;;;;;;4956174;28;20658;-82
2023/02/23 05:21:21;;;;;;;64.20;32.20;;;;;;;;;;4953063;28;20232;-82
2023/02/23 05:23:47;;;;;;;77.43;33.50;;;;;;;;;;4954781;28;20563;-82
2023/02/23 05:26:13;;;;;;;63.60;31.10;;;;;;;;;;4953364;29;20845;-81
2023/02/23 05:28:39;;;;;;;75.83;32.80;;;;;;;;;;4952549;28;20189;-81
2023/02/23 05:31:04;;;;;;;70.80;31.23;;;;;;;;;;4952969;28;20637;-81
2023/02/23 05:33:34;;;;;;;67.23;31.33;;;;;;;;;;4953993;28;20169;-81
2023/02/23 05:35:59;;;;;;;72.37;32.57;;;;;;;;;;4948952;28;20193;-81
2023/02/23 05:38:26;;;;;;;76.27;32.87;;;;;;;;;;4962706;28;20614;-80
2023/02/23 05:40:51;;;;;;;70.23;31.17;;;;;;;;;;4951346;28;20193;-82
2023/02/23 05:43:16;;;;;;;74.47;33.30;;;;;;;;;;4951031;28;20186;-81
2023/02/23 05:45:42;;;;;;;80.17;33.30;;;;;;;;;;4948976;28;20181;-81
2023/02/23 05:48:08;;;;;;;67.97;30.87;;;;;;;;;;4949737;28;20185;-80
2023/02/23 05:50:33;;;;;;;67.80;33.10;;;;;;;;;;4974319;28;20193;-81
2023/02/23 05:52:58;;;;;;;72.23;32.60;;;;;;;;;;4948795;28;20209;-81
2023/02/23 05:55:24;;;;;;;69.30;31.23;;;;;;;;;;4945258;29;20184;-81
2023/02/23 05:57:49;;;;;;;74.27;32.23;;;;;;;;;;4954524;28;20217;-81
2023/02/23 06:00:15;;;;;;;78.67;31.87;;;;;;;;;;4955188;29;20208;-82
2023/02/23 06:02:40;;;;;;;68.90;33.60;;;;;;;;;;4955110;28;20188;-81
2023/02/23 06:05:06;;;;;;;77.60;32.27;;;;;;;;;;4950552;28;20198;-81
2023/02/23 06:07:31;;;;;;;74.93;33.90;;;;;;;;;;4953811;28;20193;-82
2023/02/23 06:09:56;;;;;;;72.70;32.50;;;;;;;;;;4953457;28;20192;-80
2023/02/23 06:12:22;;;;;;;77.57;32.57;;;;;;;;;;4957885;28;20217;-81
2023/02/23 06:14:49;;;;;;;75.60;32.53;;;;;;;;;;4950261;28;20185;-81
2023/02/23 06:17:14;;;;;;;74.57;33.50;;;;;;;;;;4952835;28;20174;-81
2023/02/23 06:19:40;;;;;;;75.17;33.07;;;;;;;;;;4956920;29;20178;-82
2023/02/23 06:22:05;;;;;;;71.90;32.90;;;;;;;;;;4954912;28;20224;-81
2023/02/23 06:24:30;;;;;;;73.13;32.47;;;;;;;;;;4954387;28;20202;-82
2023/02/23 06:26:55;;;;;;;75.30;32.17;;;;;;;;;;4966143;28;20644;-81
2023/02/23 06:29:20;;;;;;;69.43;31.23;;;;;;;;;;4964368;28;20673;-81
2023/02/23 06:31:46;;;;;;;70.27;30.57;;;;;;;;;;4947659;28;20213;-81
2023/02/23 06:34:11;;;;;;;70.57;30.93;;;;;;;;;;4952166;28;20220;-81
2023/02/23 06:36:36;;;;;;;75.60;31.80;;;;;;;;;;4951653;28;20173;-81
2023/02/23 06:39:02;;;;;;;71.53;30.87;;;;;;;;;;4949608;28;20192;-81
2023/02/23 06:41:27;;;;;;;66.53;29.83;;;;;;;;;;4951454;28;20235;-81
2023/02/23 06:43:53;;;;;;;71.77;30.70;;;;;;;;;;4967146;28;20223;-81
2023/02/23 06:46:18;;;;;;;68.07;31.03;;;;;;;;;;4952218;28;20686;-81
2023/02/23 06:48:43;;;;;;;78.23;31.67;;;;;;;;;;4950192;28;20180;-80
2023/02/23 06:51:09;;;;;;;64.23;29.03;;;;;;;;;;4946611;29;20216;-81
2023/02/23 06:53:34;;;;;;;75.43;30.77;;;;;;;;;;4950445;28;20605;-81
2023/02/23 06:56:00;;;;;;;70.70;30.83;;;;;;;;;;4967761;28;20209;-81
2023/02/23 06:58:25;;;;;;;66.90;29.37;;;;;;;;;;4956907;28;20630;-81
2023/02/23 07:00:51;;;;;;;68.17;28.73;;;;;;;;;;4949276;28;20651;-82
2023/02/23 07:03:18;;;;;;;65.53;29.80;;;;;;;;;;4954429;28;20188;-80
2023/02/23 07:05:43;;;;;;;63.83;28.50;;;;;;;;;;4948551;29;20257;-80
2023/02/23 07:08:09;;;;;;;66.60;29.17;;;;;;;;;;4946489;29;20253;-80
2023/02/23 07:10:34;;;;;;;72.20;29.63;;;;;;;;;;4944142;28;20200;-80
2023/02/23 07:12:59;;;;;;;70.73;30.60;;;;;;;;;;4945354;29;20210;-80
2023/02/23 07:15:24;;;;;;;71.13;29.60;;;;;;;;;;4948216;28;20181;-80
2023/02/23 07:17:51;;;;;;;70.40;29.13;;;;;;;;;;4947132;29;20181;-80
2023/02/23 07:20:17;;;;;;;66.37;29.47;;;;;;;;;;4948697;28;20198;-80
2023/02/23 07:22:42;;;;;;;69.10;30.80;;;;;;;;;;4968742;28;20251;-80
2023/02/23 07:25:08;;;;;;;64.30;30.87;;;;;;;;;;4944772;28;20178;-80
2023/02/23 07:27:33;;;;;;;76.77;32.07;;;;;;;;;;4950409;29;20647;-80
2023/02/23 07:29:59;;;;;;;68.07;29.20;;;;;;;;;;4949777;29;20842;-80
2023/02/23 07:32:24;;;;;;;70.93;31.77;;;;;;;;;;4951592;28;20204;-80
2023/02/23 07:34:49;;;;;;;73.67;31.53;;;;;;;;;;4952075;28;20173;-80
2023/02/23 07:37:15;;;;;;;73.90;30.47;;;;;;;;;;4946242;29;20177;-81
2023/02/23 07:39:41;;;;;;;74.77;30.37;;;;;;;;;;4955311;28;20268;-80
2023/02/23 07:42:06;;;;;;;70.07;32.60;;;;;;;;;;4947084;29;20220;-80
2023/02/23 07:44:31;;;;;;;78.70;31.77;;;;;;;;;;4957858;28;20189;-80
2023/02/23 07:46:56;;;;;;;69.93;30.03;;;;;;;;;;4956550;29;20561;-81
2023/02/23 07:49:21;;;;;;;73.70;29.90;;;;;;;;;;4952502;28;20243;-80
2023/02/23 07:51:47;;;;;;;68.57;30.70;;;;;;;;;;4948819;28;20311;-80
2023/02/23 07:54:12;;;;;;;64.20;31.10;;;;;;;;;;4949974;28;20181;-80
2023/02/23 07:56:37;;;;;;;80.33;31.70;;;;;;;;;;4949006;28;20178;-80
2023/02/23 07:59:02;;;;;;;73.40;31.33;;;;;;;;;;4956033;28;20177;-80
2023/02/23 08:01:28;;;;;;;67.10;30.37;;;;;;;;;;4952526;28;20215;-81
2023/02/23 08:03:53;;;;;;;67.23;30.23;;;;;;;;;;4955922;28;20540;-81
2023/02/23 08:06:18;;;;;;;65.93;28.40;;;;;;;;;;4956991;28;20181;-81
2023/02/23 08:08:44;;;;;;;66.50;29.60;;;;;;;;;;4956150;28;20592;-81
2023/02/23 08:11:09;;;;;;;70.53;28.97;;;;;;;;;;4955607;29;20213;-80
2023/02/23 08:13:36;;;;;;;62.27;27.13;;;;;;;;;;4954460;29;20180;-80
2023/02/23 08:16:01;;;;;;;66.43;30.33;;;;;;;;;;4950504;28;20173;-80
2023/02/23 08:18:26;;;;;;;67.00;27.33;;;;;;;;;;4955251;28;20183;-80
2023/02/23 08:20:58;;;;;;;67.57;29.27;;;;;;;;;;4954290;28;20216;-80
2023/02/23 08:23:23;;;;;;;64.63;28.00;;;;;;;;;;4954198;28;20671;-80
2023/02/23 08:25:48;;;;;;;56.00;25.97;;;;;;;;;;4952557;28;20173;-81
2023/02/23 08:28:14;;;;;;;62.67;27.37;;;;;;;;;;4949070;28;20208;-80
2023/02/23 08:30:39;;;;;;;58.03;25.63;;;;;;;;;;4953922;28;20193;-80
2023/02/23 08:33:05;;;;;;;63.47;28.60;;;;;;;;;;4953791;28;20232;-80
2023/02/23 08:35:30;;;;;;;60.13;26.67;;;;;;;;;;4956550;28;20662;-81
2023/02/23 08:37:56;;;;;;;59.03;26.63;;;;;;;;;;4947188;28;20189;-80
2023/02/23 08:40:21;;;;;;;52.33;24.17;;;;;;;;;;4951603;28;20181;-81
2023/02/23 08:42:52;;;;;;;57.50;25.83;;;;;;;;;;4952019;28;20211;-81
2023/02/23 08:45:18;;;;;;;54.67;24.80;;;;;;;;;;4955592;28;20520;-81
2023/02/23 08:47:43;;;;;;;58.10;27.10;;;;;;;;;;4952598;28;20328;-81
2023/02/23 08:50:09;;;;;;;52.27;24.03;;;;;;;;;;4955933;28;20201;-82
2023/02/23 08:52:35;;;;;;;47.97;23.57;;;;;;;;;;4957821;28;20196;-81
2023/02/23 08:55:00;;;;;;;49.80;24.37;;;;;;;;;;4957813;28;20176;-81
2023/02/23 08:57:25;;;;;;;50.50;24.93;;;;;;;;;;4956275;28;20609;-81
2023/02/23 08:59:51;;;;;;;48.93;23.13;;;;;;;;;;4955431;28;20283;-81
2023/02/23 09:02:16;;;;;;;51.83;25.97;;;;;;;;;;4956583;28;20169;-80
2023/02/23 09:04:42;;;;;;;48.77;24.00;;;;;;;;;;4949702;28;20548;-81
2023/02/23 09:07:08;;;;;;;48.73;24.23;;;;;;;;;;4956106;28;20217;-80
2023/02/23 09:09:34;;;;;;;43.03;21.57;;;;;;;;;;4955831;28;20216;-80
2023/02/23 09:11:59;;;;;;;44.80;22.47;;;;;;;;;;4974929;28;20236;-81
2023/02/23 09:14:25;;;;;;;47.00;22.50;;;;;;;;;;4960005;28;20204;-80
2023/02/23 09:16:50;;;;;;;47.40;22.37;;;;;;;;;;4959953;28;20236;-80
2023/02/23 09:19:15;;;;;;;42.03;22.50;;;;;;;;;;4957582;28;20248;-80
2023/02/23 09:21:42;;;;;;;44.13;22.13;;;;;;;;;;4957772;28;20212;-80
2023/02/23 09:24:07;;;;;;;44.73;21.23;;;;;;;;;;4960028;28;20184;-80
2023/02/23 09:26:32;;;;;;;42.53;22.33;;;;;;;;;;4954104;28;20185;-80
2023/02/23 09:28:58;;;;;;;41.83;22.30;;;;;;;;;;4958222;28;20252;-81
2023/02/23 09:31:23;;;;;;;41.37;21.30;;;;;;;;;;4956667;28;20726;-80
2023/02/23 09:33:49;;;;;;;42.30;21.13;;;;;;;;;;4957175;28;20169;-80
2023/02/23 09:36:16;;;;;;;42.43;20.10;;;;;;;;;;4954224;28;20284;-80
2023/02/23 09:38:44;;;;;;;34.30;19.07;;;;;;;;;;4953362;28;20480;-79
2023/02/23 09:41:26;;;;;;;42.03;17.73;;;;;;;;;;4954647;28;20212;-79
2023/02/23 09:43:58;;;;;;;34.47;17.20;;;;;;;;;;4958435;29;20703;-79
2023/02/23 09:46:23;;;;;;;35.27;17.87;;;;;;;;;;4958174;28;20205;-79
2023/02/23 09:48:49;;;;;;;31.47;16.33;;;;;;;;;;4954230;28;20188;-79
2023/02/23 09:51:17;;;;;;;35.93;17.73;;;;;;;;;;4959838;28;20219;-79
2023/02/23 09:53:53;;;;;;;31.60;16.73;;;;;;;;;;4960993;28;20184;-79
2023/02/23 09:56:31;;;;;;;31.50;17.40;;;;;;;;;;4958444;29;20231;-81
2023/02/23 09:58:58;;;;;;;28.90;16.50;;;;;;;;;;4979402;28;20201;-80
2023/02/23 10:01:39;;;;;;;32.60;17.13;;;;;;;;;;4970317;28;20192;-80
2023/02/23 10:04:14;;;;;;;31.20;16.73;;;;;;;;;;4965419;28;20196;-80
2023/02/23 10:06:41;;;;;;;28.47;17.50;;;;;;;;;;4967083;28;20172;-80
2023/02/23 10:09:25;;;;;;;25.57;15.33;;;;;;;;;;4966902;29;20236;-80
2023/02/23 10:12:12;;;;;;;29.87;15.13;;;;;;;;;;4970451;28;20240;-81
2023/02/23 10:14:51;;;;;;;24.47;15.67;;;;;;;;;;4969933;29;20184;-82
2023/02/23 10:17:35;;;;;;;25.83;14.00;;;;;;;;;;4963403;29;20173;-81
2023/02/23 10:20:12;;;;;;;28.17;16.10;;;;;;;;;;4968574;28;20192;-80
2023/02/23 10:22:38;;;;;;;27.80;15.57;;;;;;;;;;4980842;23;20724;-72
2023/02/23 10:25:06;;;;;;;25.67;14.30;;;;;;;;;;4974012;28;20236;-72
2023/02/23 10:27:36;;;;;;;26.27;13.53;;;;;;;;;;4973784;28;20176;-72
2023/02/23 10:30:03;;;;;;;26.43;14.53;;;;;;;;;;4974728;28;20172;-72
2023/02/23 10:32:35;;;;;;;23.03;12.70;;;;;;;;;;4988151;28;20599;-72
2023/02/23 10:35:00;;;;;;;22.93;13.23;;;;;;;;;;4987814;28;20188;-71
2023/02/23 10:37:25;;;;;;;20.13;12.07;;;;;;;;;;4991668;28;20229;-74
2023/02/23 10:39:51;;;;;;;24.40;13.70;;;;;;;;;;4983263;28;20346;-72
2023/02/23 10:42:20;;;;;;;22.48;13.48;;;;;;;;;;4973778;28;20755;-72
2023/02/23 10:44:45;;;;;;;18.92;11.88;;;;;;;;;;4974769;28;20187;-72
2023/02/23 10:47:21;;;;;;;19.27;11.83;;;;;;;;;;4987800;28;20373;-72
2023/02/23 10:49:46;;;;;;;18.20;11.43;;;;;;;;;;4982896;28;20195;-72
2023/02/23 10:52:14;;;;;;;20.42;12.50;;;;;;;;;;4985293;28;20211;-72
2023/02/23 10:54:42;;;;;;;20.30;11.35;;;;;;;;;;4977924;28;20187;-72
2023/02/23 10:57:08;;;;;;;18.15;10.90;;;;;;;;;;4985429;28;20180;-72
2023/02/23 10:59:34;;;;;;;15.38;10.30;;;;;;;;;;4980567;28;21134;-73
2023/02/23 11:02:13;;;;;;;18.52;10.82;;;;;;;;;;4983567;28;20215;-72
2023/02/23 11:04:48;;;;;;;16.08;9.88;;;;;;;;;;4986887;28;20266;-72
2023/02/23 11:07:15;;;;;;;13.85;9.00;;;;;;;;;;4985987;28;20206;-71
2023/02/23 11:09:40;;;;;;;16.15;9.77;;;;;;;;;;4982684;28;20187;-73
2023/02/23 11:12:20;;;;;;;14.27;8.80;;;;;;;;;;4983430;28;20199;-72
2023/02/23 11:14:46;;;;;;;12.98;7.93;;;;;;;;;;4991972;28;20257;-72
2023/02/23 11:17:29;;;;;;;14.40;8.52;;;;;;;;;;4990775;28;20226;-72
2023/02/23 11:20:01;;;;;;;13.15;8.05;;;;;;;;;;4983495;28;20646;-73
2023/02/23 11:22:29;;;;;;;13.98;8.88;;;;;;;;;;4986888;28;20269;-72
2023/02/23 11:24:54;;;;;;;13.65;8.55;;;;;;;;;;4992184;28;20187;-72
2023/02/23 11:27:22;;;;;;;15.95;9.50;;;;;;;;;;4991716;28;20246;-71
2023/02/23 11:29:49;;;;;;;13.95;9.00;;;;;;;;;;4978088;28;20180;-71
2023/02/23 11:32:18;;;;;;;16.10;9.77;;;;;;;;;;4987839;28;20951;-72
2023/02/23 11:34:43;;;;;;;15.68;9.35;;;;;;;;;;4986507;28;20591;-72
2023/02/23 11:37:24;;;;;;;16.15;9.63;;;;;;;;;;4984692;28;20263;-72
2023/02/23 11:39:49;;;;;;;15.70;9.52;;;;;;;;;;5004217;28;20542;-72
2023/02/23 11:42:20;;;;;;;16.03;10.00;;;;;;;;;;4984418;28;20204;-73
2023/02/23 11:44:49;;;;;;;17.33;10.40;;;;;;;;;;4980273;28;20661;-72
2023/02/23 11:47:19;;;;;;;14.60;9.73;;;;;;;;;;4979492;28;20769;-71
2023/02/23 11:49:45;;;;;;;17.70;10.37;;;;;;;;;;4988743;28;20175;-72
2023/02/23 11:52:16;;;;;;;18.90;10.30;;;;;;;;;;4984655;28;20239;-72
2023/02/23 11:54:47;;;;;;;16.83;9.83;;;;;;;;;;4970499;28;20258;-75
2023/02/23 11:57:19;;;;;;;19.13;10.97;;;;;;;;;;4983069;28;20274;-72
2023/02/23 11:59:44;;;;;;;13.33;9.37;;;;;;;;;;4986750;28;20172;-72
2023/02/23 12:02:17;;;;;;;16.47;10.00;;;;;;;;;;4985059;28;20208;-72
2023/02/23 12:04:46;;;;;;;13.90;8.53;;;;;;;;;;4987280;28;20175;-72
2023/02/23 12:07:33;;;;;;;15.40;8.53;;;;;;;;;;4989391;28;20198;-73
2023/02/23 12:10:20;;;;;;;14.13;8.70;;;;;;;;;;4989598;28;20266;-73
2023/02/23 12:13:12;;;;;;;15.93;9.23;;;;;;;;;;4978342;28;20700;-73
2023/02/23 12:15:49;;;;;;;19.90;9.67;;;;;;;;;;4987019;28;20562;-73
2023/02/23 12:18:27;;;;;;;15.83;10.17;;;;;;;;;;4985942;28;20175;-73
2023/02/23 12:20:55;;;;;;;21.70;11.27;;;;;;;;;;4984688;28;20203;-72
2023/02/23 12:23:24;;;;;;;16.67;9.87;;;;;;;;;;4978127;28;20181;-72
2023/02/23 12:25:53;;;;;;;21.42;11.00;;;;;;;;;;4987744;28;20179;-73
2023/02/23 12:28:26;;;;;;;19.13;9.35;;;;;;;;;;4977370;28;20267;-73
2023/02/23 12:31:04;;;;;;;17.38;10.13;;;;;;;;;;4978941;28;20586;-74
2023/02/23 12:33:44;;;;;;;17.90;10.37;;;;;;;;;;4985812;28;20175;-73
2023/02/23 12:36:18;;;;;;;16.33;9.10;;;;;;;;;;4989172;28;20272;-73
2023/02/23 12:38:48;;;;;;;14.15;8.95;;;;;;;;;;4980296;28;20650;-73
2023/02/23 12:41:17;;;;;;;16.73;8.27;;;;;;;;;;4978768;28;20207;-74
2023/02/23 12:43:59;;;;;;;15.47;8.00;;;;;;;;;;4984877;28;20185;-73
2023/02/23 12:46:26;;;;;;;13.00;7.97;;;;;;;;;;4986460;28;20172;-72
2023/02/23 12:49:12;;;;;;;13.38;7.63;;;;;;;;;;4994691;28;20175;-72
2023/02/23 12:51:39;;;;;;;12.33;7.40;;;;;;;;;;4991359;28;20357;-72
2023/02/23 12:54:07;;;;;;;13.47;7.70;;;;;;;;;;4989592;28;20219;-72
2023/02/23 12:56:48;;;;;;;18.77;8.77;;;;;;;;;;4990135;28;20172;-72
2023/02/23 12:59:13;;;;;;;13.35;7.25;;;;;;;;;;4983726;28;20171;-73
2023/02/23 13:01:51;;;;;;;14.75;8.20;;;;;;;;;;4982163;28;20196;-72
2023/02/23 13:04:23;;;;;;;17.60;8.70;;;;;;;;;;4990626;28;20254;-72
2023/02/23 13:06:48;;;;;;;12.50;8.05;;;;;;;;;;4991463;28;20167;-72
2023/02/23 13:09:23;;;;;;;14.90;8.27;;;;;;;;;;4991282;28;20171;-72
2023/02/23 13:12:01;;;;;;;15.43;7.80;;;;;;;;;;4988597;28;20203;-72
2023/02/23 13:14:28;;;;;;;14.18;7.97;;;;;;;;;;4991948;28;20295;-72
2023/02/23 13:16:56;;;;;;;12.05;7.55;;;;;;;;;;4980136;28;20532;-71
2023/02/23 13:19:28;;;;;;;11.77;7.57;;;;;;;;;;4989427;28;20179;-72
2023/02/23 13:21:57;;;;;;;15.02;7.88;;;;;;;;;;4983812;28;20215;-74
2023/02/23 13:24:28;;;;;;;12.00;7.03;;;;;;;;;;4981159;28;20176;-73
2023/02/23 13:27:15;;;;;;;13.43;8.85;;;;;;;;;;4987377;28;20191;-72
2023/02/23 13:29:45;;;;;;;17.98;9.80;;;;;;;;;;4989976;28;20203;-72
2023/02/23 13:32:18;;;;;;;16.00;8.80;;;;;;;;;;4989415;28;20301;-71
2023/02/23 13:34:46;;;;;;;16.42;9.15;;;;;;;;;;4991148;28;20254;-72
2023/02/23 13:37:15;;;;;;;15.07;7.85;;;;;;;;;;4994623;28;20489;-72
2023/02/23 13:39:47;;;;;;;12.57;8.30;;;;;;;;;;4993042;28;20226;-71
2023/02/23 13:42:18;;;;;;;16.70;9.88;;;;;;;;;;4971465;28;20250;-71
2023/02/23 13:45:11;;;;;;;17.55;8.43;;;;;;;;;;4989915;28;20263;-71
2023/02/23 13:47:44;;;;;;;17.55;10.52;;;;;;;;;;4984139;28;20183;-72
2023/02/23 13:50:38;;;;;;;22.00;10.63;;;;;;;;;;4984572;28;20183;-71
2023/02/23 13:53:06;;;;;;;20.95;10.07;;;;;;;;;;4981291;28;20226;-71
2023/02/23 13:55:32;;;;;;;17.93;10.70;;;;;;;;;;5000306;28;20168;-71
2023/02/23 13:58:18;;;;;;;18.38;10.32;;;;;;;;;;4981956;28;20184;-71
2023/02/23 14:00:48;;;;;;;19.00;10.43;;;;;;;;;;4981875;28;20275;-72
2023/02/23 14:03:19;;;;;;;23.33;13.10;;;;;;;;;;4992221;28;20564;-71
2023/02/23 14:05:45;;;;;;;24.63;13.60;;;;;;;;;;4993889;28;20673;-72
2023/02/23 14:08:26;;;;;;;25.63;15.10;;;;;;;;;;4986505;28;20172;-73
2023/02/23 14:10:53;;;;;;;37.50;15.83;;;;;;;;;;4988988;28;20206;-74
2023/02/23 14:13:19;;;;;;;23.50;14.33;;;;;;;;;;4991165;28;20277;-72
2023/02/23 14:16:06;;;;;;;24.33;13.50;;;;;;;;;;4993705;28;20167;-72
2023/02/23 14:18:32;;;;;;;26.33;14.70;;;;;;;;;;4985432;28;20173;-71
2023/02/23 14:21:00;;;;;;;24.23;14.10;;;;;;;;;;4974589;28;20212;-71
2023/02/23 14:23:28;;;;;;;24.87;15.87;;;;;;;;;;4993760;28;20250;-71
2023/02/23 14:26:10;;;;;;;27.53;16.93;;;;;;;;;;4986738;28;20234;-71
2023/02/23 14:28:38;;;;;;;27.93;15.20;;;;;;;;;;4984340;28;20328;-71
2023/02/23 14:31:09;;;;;;;27.07;15.60;;;;;;;;;;4983896;28;20200;-71
2023/02/23 14:33:37;;;;;;;22.90;14.50;;;;;;;;;;4993358;28;20263;-73
2023/02/23 14:36:22;;;;;;;30.20;16.53;;;;;;;;;;4982976;28;20181;-72
2023/02/23 14:38:59;;;;;;;25.43;14.43;;;;;;;;;;4982366;28;20670;-72
2023/02/23 14:41:27;;;;;;;21.27;13.53;;;;;;;;;;4984413;28;20231;-71
2023/02/23 14:43:54;;;;;;;21.07;11.90;;;;;;;;;;4990853;28;20176;-71
2023/02/23 14:46:20;;;;;;;21.60;11.80;;;;;;;;;;4990898;28;20189;-72
2023/02/23 14:48:57;;;;;;;18.53;10.40;;;;;;;;;;4977500;28;20180;-73
2023/02/23 14:51:24;;;;;;;17.43;9.90;;;;;;;;;;4992675;28;20199;-71
2023/02/23 14:53:52;;;;;;;16.70;9.57;;;;;;;;;;4982007;28;20183;-71
2023/02/23 14:56:21;;;;;;;17.17;9.83;;;;;;;;;;4985184;28;20610;-72
2023/02/23 14:58:53;;;;;;;16.53;8.53;;;;;;;;;;4988668;28;20180;-72
2023/02/23 15:01:31;;;;;;;15.25;8.20;;;;;;;;;;4986094;28;20593;-71
2023/02/23 15:04:10;;;;;;;11.93;7.43;;;;;;;;;;4991131;28;20188;-72
2023/02/23 15:06:35;;;;;;;13.57;7.85;;;;;;;;;;4993204;28;20258;-72
2023/02/23 15:09:01;;;;;;;12.25;7.10;;;;;;;;;;4992787;28;20251;-72
2023/02/23 15:11:28;;;;;;;15.07;8.07;;;;;;;;;;4978823;28;20210;-72
2023/02/23 15:13:53;;;;;;;15.18;8.45;;;;;;;;;;4986765;28;20176;-71
2023/02/23 15:16:33;;;;;;;10.27;7.10;;;;;;;;;;4992265;28;20171;-73
2023/02/23 15:19:01;;;;;;;15.35;8.07;;;;;;;;;;4996782;28;20180;-72
2023/02/23 15:21:27;;;;;;;17.25;8.05;;;;;;;;;;4992168;28;20217;-73
2023/02/23 15:23:57;;;;;;;17.77;9.10;;;;;;;;;;4992953;28;20266;-72
2023/02/23 15:26:30;;;;;;;17.20;9.68;;;;;;;;;;4988490;28;20187;-73
2023/02/23 15:29:03;;;;;;;14.00;8.27;;;;;;;;;;4978848;28;20227;-73
2023/02/23 15:31:29;;;;;;;16.40;8.15;;;;;;;;;;4979124;28;20263;-72
2023/02/23 15:33:56;;;;;;;14.73;7.38;;;;;;;;;;4979589;28;20180;-72
2023/02/23 15:36:28;;;;;;;9.80;5.07;;;;;;;;;;4990165;28;20176;-73
2023/02/23 15:38:54;;;;;;;9.80;4.50;;;;;;;;;;4983618;28;20183;-73
2023/02/23 15:41:25;;;;;;;10.63;4.03;;;;;;;;;;4984051;28;20719;-72
2023/02/23 15:43:51;;;;;;;11.57;3.67;;;;;;;;;;4989507;28;20539;-72
2023/02/23 15:46:25;;;;;;;11.53;3.43;;;;;;;;;;4991788;28;20160;-72
2023/02/23 15:48:51;;;;;;;16.43;4.23;;;;;;;;;;4991613;28;20171;-73